Terminal Aerodrome Forecast
Issued by NWS Louisville, KY

Home | Current Version | Previous Version | Text Only | Print | Product List | Glossary On
Versions: 1 2 3 4 5 6 7 8 9 10 11 12 13
261
FTUS43 KLMK 110520
TAFBWG
TAF
KBWG 110520Z 1106/1206 VRB04KT P6SM BKN250
     FM111500 19014G24KT P6SM OVC050
     FM120000 19011KT 5SM SHRA BR OVC030=

USA.gov is the U.S. government's official web portal to all federal, state and local government web resources and services.